Dilworth, Texas
Current Conditions -  °F | °C
As of 10:35 PM on Tuesday 21 Oct 2014 (Local Time) from KT20 Reporting Station
Clear Clear  
Wind Chill: 69°   Ceiling: Unl
Heat Index: 69°   Visibility: 10mi
Dew Point: 52°   Wind: 6mph
Humidity: 56%   Direction: 80°E
Pressure: 30.03"   Gusts: NA
Location:  29.481°N, 97.4305°W
Report Text: KT20 220335Z AUTO 08005KT 10SM CLR 20/11 A3003 RMK AO2 T02030112
Loading
Personal Weather Stations






























Interactive Weather Map
Tropical Storm Tracking
New forecast layout! Learn more

10-Day Weather Forecast

Advertisements
Track Severe Weather on mobile